Terminal Aerodrome Forecast
Issued by NWS Wakefield, VA

Home | Current Version | Previous Version | Text Only | Print | Product List | Glossary On
Versions: 1 2 3 4 5 6 7 8 9 10 11 12 13 14 15 16 17 18 19 20 21
000
FTUS41 KAKQ 040655 AAA
TAFORF
TAF AMD
KORF 040655Z 0407/0506 01005KT 6SM BR OVC004
      TEMPO 0407/0409 4SM -RA BR OVC006
     FM040900 02004KT 2SM BR OVC004
     FM041500 02004KT 4SM BR OVC008
     FM041800 02005KT P6SM SCT010 BKN025
     FM042100 02006KT P6SM BKN100=

USA.gov is the U.S. government's official web portal to all federal, state and local government web resources and services.